Time;durP1;ratioP1;P1;durP2;ratioP2;P2;SDS_P1;SDS_P2;PMS_P1;PMS_P2;Temp;Humidity;BMP_temperature;BMP_pressure;BME280_temperature;BME280_humidity;BME280_pressure;Samples;Min_cycle;Max_cycle;Signal;HPM_P1;HPM_P2
2021/12/21 00:01:20;;;;;;;2.17;2.03;;;;;;;0.87;nan;95216.06;5059770;28;20742;-72
2021/12/21 00:03:47;;;;;;;2.70;2.37;;;;;;;0.75;nan;95210.97;5059785;28;20202;-73
2021/12/21 00:06:15;;;;;;;2.00;1.90;;;;;;;1.11;nan;95214.53;5058889;28;20198;-73
2021/12/21 00:08:42;;;;;;;4.07;1.90;;;;;;;1.16;nan;95212.91;5058485;28;20199;-71
2021/12/21 00:11:09;;;;;;;2.40;2.20;;;;;;;1.13;nan;95213.72;5059278;28;20222;-71
2021/12/21 00:19:36;;;;;;;2.03;1.87;;;;;;;1.19;nan;95223.75;5059442;28;20219;-72
2021/12/21 00:22:12;;;;;;;2.63;2.53;;;;;;;0.99;nan;95222.81;5064037;28;20281;-75
2021/12/21 00:24:47;;;;;;;5.17;2.60;;;;;;;0.99;nan;95231.13;5063336;28;20206;-73
2021/12/21 00:27:15;;;;;;;1.97;1.87;;;;;;;0.99;nan;95225.34;5063255;28;20198;-74
2021/12/21 00:29:43;;;;;;;2.33;2.13;;;;;;;0.96;nan;95225.31;5062902;28;21149;-72
2021/12/21 00:32:10;;;;;;;3.00;2.47;;;;;;;1.12;nan;95231.22;5063390;28;20222;-75
2021/12/21 00:34:39;;;;;;;2.40;2.03;;;;;;;1.07;nan;95227.84;5063361;28;20225;-74
2021/12/21 00:37:08;;;;;;;3.63;2.60;;;;;;;1.13;nan;95233.75;5063356;28;20287;-72
2021/12/21 00:39:35;;;;;;;3.03;2.83;;;;;;;1.00;nan;95236.97;5062122;28;20283;-76
2021/12/21 00:42:02;;;;;;;4.33;2.53;;;;;;;0.94;nan;95231.97;5063511;28;20233;-74
2021/12/21 00:44:29;;;;;;;2.33;2.13;;;;;;;0.87;nan;95240.25;5063015;28;21226;-73
2021/12/21 00:46:55;;;;;;;2.80;2.47;;;;;;;1.00;nan;95237.81;5061988;28;20259;-69
2021/12/21 00:49:24;;;;;;;2.70;2.50;;;;;;;1.06;nan;95247.03;5061362;28;20202;-75
2021/12/21 00:51:50;;;;;;;2.30;2.17;;;;;;;1.06;nan;95247.03;5063118;28;20226;-72
2021/12/21 00:54:18;;;;;;;3.83;2.53;;;;;;;0.94;nan;95236.97;5062448;28;20638;-74
2021/12/21 00:56:45;;;;;;;2.67;2.20;;;;;;;0.84;nan;95245.22;5063007;28;20206;-74
2021/12/21 00:59:12;;;;;;;3.00;2.57;;;;;;;0.79;nan;95247.69;5062541;28;20198;-74
2021/12/21 01:01:41;;;;;;;3.90;2.57;;;;;;;0.68;nan;95240.13;5062801;28;20268;-72
2021/12/21 01:04:16;;;;;;;2.63;2.50;;;;;;;0.64;nan;95238.44;5062845;28;20205;-73
2021/12/21 01:06:57;;;;;;;2.73;2.53;;;;;;;0.67;nan;95255.13;5062871;28;20289;-72
2021/12/21 01:09:49;;;;;;;2.53;2.43;;;;;;;0.75;nan;95236.00;5062213;28;20198;-73
2021/12/21 01:12:25;;;;;;;2.53;2.43;;;;;;;0.59;nan;95242.56;5063049;28;20236;-72
2021/12/21 01:15:05;;;;;;;2.50;2.30;;;;;;;0.41;nan;95234.94;5062969;28;20224;-73
2021/12/21 01:17:37;;;;;;;2.87;2.67;;;;;;;0.51;nan;95239.16;5062334;28;20202;-75
2021/12/21 01:20:13;;;;;;;6.80;2.40;;;;;;;0.44;nan;95234.97;5061885;28;20285;-73
2021/12/21 01:23:00;;;;;;;5.13;2.00;;;;;;;0.39;nan;95241.56;5062838;28;20259;-72
2021/12/21 01:25:39;;;;;;;3.07;1.97;;;;;;;0.45;nan;95246.63;5062975;28;20303;-71
2021/12/21 01:28:13;;;;;;;2.10;2.00;;;;;;;0.53;nan;95245.00;5062795;28;20229;-69
2021/12/21 01:30:49;;;;;;;2.20;2.00;;;;;;;0.55;nan;95253.38;5061179;28;20205;-72
2021/12/21 01:33:30;;;;;;;2.40;2.20;;;;;;;0.56;nan;95249.19;5062117;28;20209;-74
2021/12/21 01:35:58;;;;;;;2.47;2.27;;;;;;;0.51;nan;95256.66;5058061;28;20210;-73
2021/12/21 01:38:31;;;;;;;3.53;2.60;;;;;;;0.42;nan;95259.09;5059754;28;20194;-74
2021/12/21 01:41:06;;;;;;;3.30;2.90;;;;;;;0.44;nan;95254.97;5059796;28;20199;-70
2021/12/21 01:43:38;;;;;;;2.50;2.30;;;;;;;0.56;nan;95260.03;5060334;28;20295;-71
2021/12/21 01:51:35;;;;;;;2.57;2.37;;;;;;;0.64;nan;95267.59;5060020;28;20723;-73
2021/12/21 01:54:02;;;;;;;2.33;2.23;;;;;;;0.56;nan;95255.03;5059852;28;20636;-75
2021/12/21 01:56:31;;;;;;;2.43;2.30;;;;;;;0.50;nan;95254.97;5060965;28;20207;-73
2021/12/21 01:58:58;;;;;;;2.50;2.30;;;;;;;0.53;nan;95255.00;5061359;28;20324;-72
2021/12/21 02:01:28;;;;;;;2.70;2.50;;;;;;;0.48;nan;95251.66;5060746;28;20202;-74
2021/12/21 02:03:55;;;;;;;2.70;2.50;;;;;;;0.45;nan;95264.13;5061049;28;20209;-73
2021/12/21 02:06:24;;;;;;;2.73;2.53;;;;;;;0.48;nan;95266.66;5060920;28;20198;-74
2021/12/21 02:08:52;;;;;;;4.80;2.23;;;;;;;0.70;nan;95255.16;5061699;28;20215;-74
2021/12/21 02:11:20;;;;;;;5.80;2.37;;;;;;;0.32;nan;95244.84;5061435;28;20246;-72
2021/12/21 02:13:50;;;;;;;2.00;1.90;;;;;;;0.55;nan;95250.88;5061034;28;20214;-73
2021/12/21 02:16:24;;;;;;;5.73;2.53;;;;;;;0.64;nan;95260.94;5060855;28;20210;-71
2021/12/21 02:18:57;;;;;;;2.40;2.20;;;;;;;0.54;nan;95256.69;5061491;28;20202;-73
2021/12/21 02:21:31;;;;;;;3.20;2.53;;;;;;;0.43;nan;95265.78;5060069;28;20633;-73
2021/12/21 02:24:03;;;;;;;2.17;2.07;;;;;;;0.26;nan;95258.13;5060335;28;20206;-71
2021/12/21 02:26:51;;;;;;;5.30;2.03;;;;;;;0.39;nan;95261.56;5059893;28;20291;-71
2021/12/21 02:29:24;;;;;;;2.13;2.03;;;;;;;0.34;nan;95258.19;5060734;28;20642;-71
2021/12/21 02:31:53;;;;;;;2.60;2.50;;;;;;;0.50;nan;95269.16;5060695;28;20237;-70
2021/12/21 02:34:21;;;;;;;2.70;1.93;;;;;;;0.41;nan;95269.94;5060349;28;20206;-73
2021/12/21 02:36:52;;;;;;;2.00;1.90;;;;;;;0.30;nan;95262.31;5059439;28;20559;-72
2021/12/21 02:39:20;;;;;;;2.63;2.07;;;;;;;0.39;nan;95270.72;5060471;28;20729;-72
2021/12/21 02:41:47;;;;;;;1.90;1.80;;;;;;;0.21;nan;95251.41;5060277;28;20230;-75
2021/12/21 02:44:14;;;;;;;2.23;2.00;;;;;;;0.38;nan;95254.06;5060372;28;20202;-72
2021/12/21 02:46:42;;;;;;;1.97;1.80;;;;;;;0.34;nan;95268.19;5059952;28;20248;-73
2021/12/21 02:49:10;;;;;;;2.37;1.67;;;;;;;0.20;nan;95269.75;5060495;28;20202;-70
2021/12/21 02:51:39;;;;;;;2.97;2.07;;;;;;;0.25;nan;95278.94;5060529;28;20226;-73
2021/12/21 02:54:08;;;;;;;2.23;1.90;;;;;;;0.29;nan;95272.31;5060335;28;20302;-73
2021/12/21 02:56:35;;;;;;;3.47;1.70;;;;;;;0.22;nan;95273.09;5059895;28;20251;-72
2021/12/21 02:59:02;;;;;;;1.80;1.70;;;;;;;0.27;nan;95268.94;5060314;28;20692;-74
2021/12/21 03:01:29;;;;;;;2.10;2.00;;;;;;;0.36;nan;95276.53;5060440;28;20272;-72
2021/12/21 03:03:57;;;;;;;1.77;1.67;;;;;;;0.39;nan;95264.06;5060330;28;20238;-74
2021/12/21 03:09:16;;;;;;;2.67;1.63;;;;;;;0.33;nan;95279.00;5058440;28;20698;-72
2021/12/21 03:11:56;;;;;;;1.53;1.43;;;;;;;0.46;nan;95282.47;5060256;28;20320;-70
2021/12/21 03:14:23;;;;;;;1.77;1.67;;;;;;;0.34;nan;95289.03;5060827;28;20200;-73
2021/12/21 03:16:50;;;;;;;2.83;2.17;;;;;;;0.23;nan;95289.78;5059813;28;20283;-73
2021/12/21 03:19:17;;;;;;;1.60;1.50;;;;;;;0.46;nan;95287.47;5059804;28;20742;-71
2021/12/21 03:21:43;;;;;;;1.77;1.67;;;;;;;0.45;nan;95289.13;5059994;28;20260;-73
2021/12/21 03:24:10;;;;;;;1.87;1.77;;;;;;;0.26;nan;95278.09;5060179;28;20202;-75
2021/12/21 03:26:37;;;;;;;1.60;1.57;;;;;;;0.46;nan;95288.31;5060358;28;20687;-72
2021/12/21 03:29:06;;;;;;;1.73;1.63;;;;;;;0.59;nan;95289.22;5060097;28;20219;-73
2021/12/21 03:31:34;;;;;;;1.70;1.60;;;;;;;0.52;nan;95283.34;5059313;28;20262;-70
2021/12/21 03:34:01;;;;;;;1.70;1.60;;;;;;;0.60;nan;95286.75;5060157;28;20203;-71
2021/12/21 03:36:28;;;;;;;3.67;1.70;;;;;;;0.70;nan;95289.34;5059850;28;20202;-72
2021/12/21 03:38:59;;;;;;;2.00;1.90;;;;;;;0.49;nan;95293.34;5060063;28;20213;-72
2021/12/21 03:41:26;;;;;;;1.97;1.80;;;;;;;0.36;nan;95306.53;5059522;28;20209;-75
2021/12/21 03:43:53;;;;;;;2.40;2.20;;;;;;;0.21;nan;95306.41;5059484;28;20202;-72
2021/12/21 03:46:23;;;;;;;2.10;2.00;;;;;;;0.31;nan;95306.50;5059578;28;20876;-73
2021/12/21 03:48:50;;;;;;;2.13;2.03;;;;;;;0.41;nan;95309.94;5059365;28;20202;-72
2021/12/21 03:51:19;;;;;;;3.00;2.13;;;;;;;0.54;nan;95309.19;5059900;28;20263;-73
2021/12/21 03:53:46;;;;;;;2.17;2.07;;;;;;;0.49;nan;95307.50;5059702;28;20198;-70
2021/12/21 03:56:37;;;;;;;2.63;2.43;;;;;;;0.58;nan;95308.41;5059058;28;20626;-73
2021/12/21 03:59:04;;;;;;;3.10;2.40;;;;;;;0.58;nan;95313.41;5059428;28;21084;-73
2021/12/21 04:01:32;;;;;;;2.50;2.33;;;;;;;0.59;nan;95311.75;5059507;28;20198;-71
2021/12/21 04:03:59;;;;;;;2.00;1.90;;;;;;;0.64;nan;95317.63;5059735;28;20263;-71
2021/12/21 04:06:26;;;;;;;1.80;1.70;;;;;;;0.44;nan;95319.13;5059412;28;20203;-71
2021/12/21 04:08:53;;;;;;;1.87;1.77;;;;;;;0.31;nan;95328.16;5058916;28;20206;-72
2021/12/21 04:11:19;;;;;;;1.70;1.60;;;;;;;0.19;nan;95333.03;5059148;28;20203;-71
2021/12/21 04:13:46;;;;;;;1.80;1.70;;;;;;;0.47;nan;95330.00;5059816;28;20594;-73
2021/12/21 04:16:13;;;;;;;1.63;1.57;;;;;;;0.43;nan;95325.78;5059591;28;20570;-71
2021/12/21 04:18:41;;;;;;;4.63;1.80;;;;;;;0.54;nan;95331.69;5059113;28;20692;-71
2021/12/21 04:21:11;;;;;;;2.40;1.40;;;;;;;0.55;nan;95330.03;5059290;28;20202;-70
2021/12/21 04:23:39;;;;;;;1.83;1.57;;;;;;;0.37;nan;95323.22;5059207;28;20730;-71
2021/12/21 04:26:06;;;;;;;6.03;1.73;;;;;;;0.31;nan;95328.16;5059266;28;20212;-73
2021/12/21 04:28:33;;;;;;;1.63;1.47;;;;;;;0.26;nan;95327.25;5058917;28;20260;-72
2021/12/21 04:31:00;;;;;;;2.87;1.97;;;;;;;0.26;nan;95324.75;5059028;28;20672;-74
2021/12/21 04:33:27;;;;;;;1.40;1.40;;;;;;;0.36;nan;95319.03;5058995;28;20222;-72
2021/12/21 04:35:56;;;;;;;1.97;1.87;;;;;;;0.25;nan;95323.91;5059175;28;20260;-74
2021/12/21 04:38:26;;;;;;;1.80;1.70;;;;;;;0.24;nan;95326.44;5059415;28;20257;-74
2021/12/21 04:41:00;;;;;;;2.90;1.80;;;;;;;0.34;nan;95329.03;5059607;28;20210;-71
2021/12/21 04:43:27;;;;;;;1.70;1.60;;;;;;;0.31;nan;95333.16;5059453;28;20722;-74
2021/12/21 04:45:53;;;;;;;1.87;1.77;;;;;;;0.16;nan;95333.84;5059285;28;20230;-74
2021/12/21 04:48:20;;;;;;;1.90;1.60;;;;;;;0.16;nan;95330.50;5059008;28;20202;-73
2021/12/21 04:50:48;;;;;;;1.90;1.80;;;;;;;0.23;nan;95339.75;5058565;28;20631;-75
2021/12/21 04:53:16;;;;;;;2.30;1.70;;;;;;;0.26;nan;95332.25;5059176;28;20230;-70
2021/12/21 04:55:43;;;;;;;3.37;1.77;;;;;;;0.33;nan;95342.34;5058908;28;20210;-70
2021/12/21 04:58:11;;;;;;;1.63;1.53;;;;;;;0.21;nan;95347.22;5059302;28;20198;-73
2021/12/21 05:00:38;;;;;;;1.60;1.50;;;;;;;0.28;nan;95346.44;5058830;28;21375;-71
2021/12/21 05:03:05;;;;;;;4.07;1.63;;;;;;;0.27;nan;95351.44;5058373;28;20289;-71
2021/12/21 05:05:32;;;;;;;6.43;2.13;;;;;;;0.25;nan;95353.06;5058524;28;20234;-72
2021/12/21 05:08:07;;;;;;;6.50;1.80;;;;;;;-0.01;nan;95348.66;5061483;28;20202;-70
2021/12/21 05:10:45;;;;;;;2.57;2.27;;;;;;;-0.07;nan;95357.75;5062679;28;20198;-71
2021/12/21 05:13:11;;;;;;;3.27;1.93;;;;;;;-0.13;nan;95342.66;5062163;28;20847;-75
2021/12/21 05:15:38;;;;;;;1.87;1.77;;;;;;;-0.17;nan;95364.28;5061958;28;20199;-71
2021/12/21 05:18:05;;;;;;;1.87;1.77;;;;;;;-0.10;nan;95366.03;5062339;28;20297;-71
2021/12/21 05:20:32;;;;;;;1.60;1.50;;;;;;;-0.05;nan;95361.09;5062557;28;20202;-73
2021/12/21 05:22:59;;;;;;;1.80;1.70;;;;;;;-0.19;nan;95360.91;5062000;28;20187;-70
2021/12/21 05:25:25;;;;;;;2.10;2.00;;;;;;;-0.18;nan;95366.75;5062193;28;20248;-71
2021/12/21 05:27:53;;;;;;;2.23;2.07;;;;;;;-0.22;nan;95363.38;5061902;28;20746;-72
2021/12/21 05:30:22;;;;;;;1.47;1.37;;;;;;;-0.10;nan;95356.03;5061317;28;20648;-74
2021/12/21 05:32:49;;;;;;;2.33;2.20;;;;;;;-0.04;nan;95366.09;5062067;28;20329;-72
2021/12/21 05:35:16;;;;;;;3.10;2.03;;;;;;;-0.14;nan;95360.97;5061867;28;20597;-70
2021/12/21 05:37:43;;;;;;;4.83;2.27;;;;;;;-0.24;nan;95366.66;5061782;28;20660;-72
2021/12/21 05:40:13;;;;;;;4.47;2.47;;;;;;;-0.13;nan;95361.00;5061708;28;20199;-73
2021/12/21 05:42:40;;;;;;;2.30;2.10;;;;;;;-0.10;nan;95381.03;5061654;28;20273;-72
2021/12/21 05:45:10;;;;;;;2.70;2.50;;;;;;;-0.17;nan;95374.25;5061845;28;20202;-72
2021/12/21 05:47:38;;;;;;;2.33;2.13;;;;;;;-0.27;nan;95367.50;5061794;28;20202;-75
2021/12/21 05:50:06;;;;;;;1.90;1.80;;;;;;;-0.26;nan;95370.81;5061592;28;20248;-72
2021/12/21 05:52:32;;;;;;;2.90;2.10;;;;;;;-0.20;nan;95373.38;5061403;28;20233;-72
2021/12/21 05:54:59;;;;;;;5.67;2.43;;;;;;;-0.34;nan;95375.72;5061588;28;20198;-72
2021/12/21 05:57:26;;;;;;;4.87;2.30;;;;;;;-0.17;nan;95379.25;5061037;28;20676;-73
2021/12/21 05:59:53;;;;;;;1.80;1.70;;;;;;;-0.20;nan;95384.22;5062175;28;20209;-74
2021/12/21 06:02:21;;;;;;;2.30;2.20;;;;;;;-0.22;nan;95397.50;5061545;28;20255;-71
2021/12/21 06:04:48;;;;;;;2.00;1.90;;;;;;;-0.09;nan;95394.34;5061697;28;20202;-75
2021/12/21 06:07:15;;;;;;;3.17;2.10;;;;;;;0.06;nan;95401.19;5059948;28;20434;-73
2021/12/21 06:09:44;;;;;;;3.27;2.00;;;;;;;0.04;nan;95393.66;5061435;28;20247;-71
2021/12/21 06:12:17;;;;;;;1.87;1.77;;;;;;;0.04;nan;95395.31;5060118;28;20205;-72
2021/12/21 06:15:15;;;;;;;3.43;2.03;;;;;;;0.20;nan;95399.69;5061075;28;20673;-74
2021/12/21 06:23:36;;;;;;;1.90;1.80;;;;;;;0.10;nan;95407.91;5060892;28;20233;-71
2021/12/21 06:26:07;;;;;;;3.30;2.10;;;;;;;0.16;nan;95422.97;5060686;28;20287;-72
2021/12/21 06:28:34;;;;;;;4.83;2.43;;;;;;;0.18;nan;95426.34;5060169;28;20209;-72
2021/12/21 06:31:02;;;;;;;2.07;1.97;;;;;;;0.05;nan;95439.47;5060415;28;20203;-74
2021/12/21 06:33:30;;;;;;;9.03;1.93;;;;;;;0.08;nan;95445.34;5060355;28;20238;-73
2021/12/21 06:35:58;;;;;;;2.07;1.87;;;;;;;0.44;nan;95439.13;5061088;28;20209;-72
2021/12/21 06:38:24;;;;;;;4.67;2.07;;;;;;;0.57;nan;95454.28;5060904;28;20259;-71
2021/12/21 06:40:52;;;;;;;2.77;1.93;;;;;;;0.57;nan;95450.94;5060072;28;20614;-71
2021/12/21 06:43:20;;;;;;;3.07;1.63;;;;;;;0.60;nan;95450.97;5060518;28;20238;-72
2021/12/21 06:45:53;;;;;;;2.47;2.27;;;;;;;0.64;nan;95448.53;5061114;28;20209;-74
2021/12/21 06:51:21;;;;;;;2.00;1.90;;;;;;;0.73;nan;95460.28;5060194;28;20201;-74
2021/12/21 06:53:50;;;;;;;7.63;2.63;;;;;;;0.79;nan;95462.84;5059856;28;20233;-73
2021/12/21 06:56:18;;;;;;;2.00;1.90;;;;;;;0.79;nan;95462.00;5060629;28;20199;-70
2021/12/21 06:58:45;;;;;;;4.73;2.50;;;;;;;0.57;nan;95459.28;5060544;28;20264;-69
2021/12/21 07:01:13;;;;;;;2.73;2.53;;;;;;;0.64;nan;95476.03;5060298;28;20211;-70
2021/12/21 07:03:41;;;;;;;2.57;2.37;;;;;;;0.75;nan;95476.13;5059902;28;20220;-73
2021/12/21 07:06:10;;;;;;;3.53;2.70;;;;;;;2.32;nan;95479.84;5059459;28;20214;-72
2021/12/21 07:08:45;;;;;;;3.23;3.03;;;;;;;4.70;nan;95474.00;5060159;28;20210;-74
2021/12/21 07:11:19;;;;;;;5.53;2.93;;;;;;;6.66;nan;95461.53;5060212;28;20206;-72
2021/12/21 07:19:15;;;;;;;3.30;2.97;;;;;;;9.15;nan;95451.41;5060073;28;20237;-73
2021/12/21 07:21:43;;;;;;;2.25;2.05;;;;;;;8.40;nan;95461.41;5060053;28;20664;-72
2021/12/21 07:24:10;;;;;;;1.88;1.77;;;;;;;8.51;nan;95462.00;5059317;28;20742;-72
2021/12/21 07:26:37;;;;;;;2.67;2.47;;;;;;;8.36;nan;95467.38;5059844;28;20284;-75
2021/12/21 07:29:05;;;;;;;2.50;2.10;;;;;;;7.16;nan;95468.44;5059818;28;20301;-74
2021/12/21 07:31:32;;;;;;;2.13;2.03;;;;;;;5.63;nan;95475.16;5059503;28;20255;-73
2021/12/21 07:33:59;;;;;;;1.85;1.73;;;;;;;5.19;nan;95475.47;5059673;28;20237;-73
2021/12/21 07:36:27;;;;;;;3.58;3.08;;;;;;;5.23;nan;95479.63;5059946;28;20236;-69
2021/12/21 07:38:55;;;;;;;4.83;2.43;;;;;;;5.03;nan;95488.13;5060271;28;20206;-70
2021/12/21 07:41:21;;;;;;;5.10;3.20;;;;;;;5.33;nan;95479.56;5059048;28;20227;-70
2021/12/21 07:43:48;;;;;;;3.87;2.30;;;;;;;4.90;nan;95473.09;5059739;28;20209;-73
2021/12/21 07:46:15;;;;;;;2.67;2.30;;;;;;;4.54;nan;95474.09;5059745;28;20256;-71
2021/12/21 07:48:43;;;;;;;2.13;1.90;;;;;;;5.15;nan;95469.59;5059395;28;20631;-71
2021/12/21 07:51:10;;;;;;;1.80;1.63;;;;;;;6.03;nan;95475.66;5059652;28;21198;-70
2021/12/21 07:53:38;;;;;;;2.97;1.90;;;;;;;5.97;nan;95468.97;5059399;28;20324;-72
2021/12/21 07:56:07;;;;;;;1.40;1.40;;;;;;;5.26;nan;95472.88;5058886;28;20221;-73
2021/12/21 07:58:35;;;;;;;2.60;1.50;;;;;;;5.32;nan;95482.94;5059515;28;20283;-71
2021/12/21 08:01:05;;;;;;;1.70;1.60;;;;;;;5.34;nan;95483.75;5059124;28;20202;-73
2021/12/21 08:03:32;;;;;;;1.90;1.80;;;;;;;4.25;nan;95490.13;5059030;28;20218;-76
2021/12/21 08:06:00;;;;;;;1.77;1.67;;;;;;;3.69;nan;95496.09;5059356;28;20195;-71
2021/12/21 08:08:29;;;;;;;5.93;2.80;;;;;;;4.27;nan;95495.16;5059223;28;20206;-71
2021/12/21 08:11:10;;;;;;;6.87;2.43;;;;;;;4.68;nan;95503.44;5058970;28;20697;-74
2021/12/21 08:13:39;;;;;;;3.77;3.17;;;;;;;5.17;nan;95488.06;5058875;28;20226;-74
2021/12/21 08:16:06;;;;;;;2.43;2.07;;;;;;;5.48;nan;95507.16;5059368;28;20669;-71
2021/12/21 08:18:33;;;;;;;1.93;1.83;;;;;;;5.52;nan;95490.34;5059765;28;20202;-72
2021/12/21 08:21:00;;;;;;;6.17;2.10;;;;;;;5.11;nan;95508.25;5059093;28;20262;-73
2021/12/21 08:23:27;;;;;;;1.70;1.60;;;;;;;4.71;nan;95513.47;5058834;28;20199;-71
2021/12/21 08:25:56;;;;;;;2.23;2.07;;;;;;;3.95;nan;95510.31;5059545;28;20278;-74
2021/12/21 08:28:23;;;;;;;2.93;1.77;;;;;;;2.89;nan;95528.59;5059353;28;20230;-73
2021/12/21 08:30:52;;;;;;;7.50;5.63;;;;;;;2.95;nan;95523.59;5059097;28;20199;-72
2021/12/21 08:33:19;;;;;;;5.90;3.13;;;;;;;5.36;nan;95492.16;5059000;28;20783;-72
2021/12/21 08:35:47;;;;;;;1.80;1.50;;;;;;;4.89;nan;95517.59;5058845;28;20202;-74
2021/12/21 08:38:16;;;;;;;1.87;1.70;;;;;;;5.95;nan;95527.84;5059329;28;20284;-73
2021/12/21 08:40:46;;;;;;;1.80;1.70;;;;;;;6.13;nan;95523.50;5059641;28;20615;-71
2021/12/21 08:43:15;;;;;;;2.20;2.10;;;;;;;5.42;nan;95519.84;5061703;28;20297;-73
2021/12/21 08:45:45;;;;;;;2.27;2.07;;;;;;;3.99;nan;95525.38;5062695;28;20620;-74
2021/12/21 08:48:14;;;;;;;94.90;40.33;;;;;;;3.25;nan;95533.72;5062484;28;20198;-73
2021/12/21 08:50:41;;;;;;;21.57;11.00;;;;;;;3.10;nan;95538.69;5063191;28;20206;-74
2021/12/21 08:53:08;;;;;;;26.43;10.77;;;;;;;3.70;nan;95537.13;5062568;28;20222;-74
2021/12/21 08:55:35;;;;;;;2.80;1.73;;;;;;;3.98;nan;95541.28;5062471;28;20205;-71
2021/12/21 08:58:02;;;;;;;2.77;2.37;;;;;;;4.47;nan;95533.66;5062439;28;20256;-71
2021/12/21 09:00:29;;;;;;;4.33;1.57;;;;;;;4.96;nan;95557.00;5060699;28;20211;-73
2021/12/21 09:02:55;;;;;;;5.57;1.87;;;;;;;6.37;nan;95535.06;5062198;28;20755;-73
2021/12/21 09:05:27;;;;;;;3.70;1.73;;;;;;;6.05;nan;95547.97;5061977;28;20205;-75
2021/12/21 09:07:54;;;;;;;1.37;1.27;;;;;;;6.60;nan;95547.44;5062769;28;20248;-76
2021/12/21 09:10:23;;;;;;;2.10;1.40;;;;;;;6.27;nan;95532.63;5062179;28;20649;-73
2021/12/21 09:12:51;;;;;;;1.10;1.10;;;;;;;6.52;nan;95541.63;5062423;28;20624;-74
2021/12/21 09:15:20;;;;;;;1.93;1.50;;;;;;;6.50;nan;95538.28;5061867;28;20230;-72
2021/12/21 09:17:47;;;;;;;1.40;1.40;;;;;;;6.20;nan;95546.97;5060393;28;20887;-71
2021/12/21 09:20:17;;;;;;;1.07;1.07;;;;;;;5.96;nan;95535.41;5060471;28;20202;-72
2021/12/21 09:22:46;;;;;;;1.23;1.23;;;;;;;5.70;nan;95539.78;5060382;28;20369;-72
2021/12/21 09:25:13;;;;;;;1.17;1.10;;;;;;;5.54;nan;95543.28;5059963;28;20262;-74
2021/12/21 09:27:40;;;;;;;1.50;1.40;;;;;;;5.95;nan;95546.34;5060454;28;20649;-74
2021/12/21 09:30:11;;;;;;;1.30;1.30;;;;;;;5.81;nan;95548.13;5060393;28;20222;-72
2021/12/21 09:32:38;;;;;;;2.03;1.93;;;;;;;4.98;nan;95550.28;5061576;28;21142;-72
2021/12/21 09:35:06;;;;;;;3.80;1.40;;;;;;;3.90;nan;95555.56;5061584;28;20250;-74
2021/12/21 09:37:33;;;;;;;2.13;1.80;;;;;;;3.77;nan;95558.91;5062349;28;20255;-74
2021/12/21 09:40:03;;;;;;;2.23;1.80;;;;;;;3.50;nan;95543.78;5061775;28;20198;-74
2021/12/21 09:42:31;;;;;;;2.00;1.60;;;;;;;3.49;nan;95558.03;5061521;28;20241;-72
2021/12/21 09:45:00;;;;;;;2.17;1.43;;;;;;;3.32;nan;95565.53;5062324;28;20206;-76
2021/12/21 09:47:28;;;;;;;1.80;1.70;;;;;;;3.50;nan;95546.31;5062161;28;20206;-74
2021/12/21 09:49:55;;;;;;;6.87;3.27;;;;;;;3.40;nan;95528.72;5062100;28;20199;-73
2021/12/21 09:52:24;;;;;;;2.50;2.07;;;;;;;3.60;nan;95550.53;5060885;28;20206;-74
2021/12/21 09:54:52;;;;;;;2.80;2.13;;;;;;;3.78;nan;95550.53;5060796;28;20287;-72
2021/12/21 09:57:21;;;;;;;4.43;2.77;;;;;;;3.96;nan;95545.47;5061667;28;20669;-72
2021/12/21 09:59:49;;;;;;;3.77;3.17;;;;;;;3.96;nan;95545.47;5061726;28;20209;-71
2021/12/21 10:02:19;;;;;;;16.80;2.05;;;;;;;3.78;nan;95548.00;5061139;28;20225;-74
2021/12/21 10:04:47;;;;;;;7.17;2.67;;;;;;;3.78;nan;95555.56;5061206;28;20198;-75
2021/12/21 10:07:14;;;;;;;3.87;1.60;;;;;;;3.59;nan;95548.84;5061332;28;21215;-72
2021/12/21 10:09:43;;;;;;;1.97;1.87;;;;;;;3.41;nan;95548.00;5061428;28;20198;-71
2021/12/21 10:12:14;;;;;;;6.63;2.37;;;;;;;3.52;nan;95549.66;5061444;28;20195;-74
2021/12/21 10:14:42;;;;;;;2.00;1.90;;;;;;;3.65;nan;95527.06;5061139;28;20280;-71
2021/12/21 10:17:11;;;;;;;1.67;1.57;;;;;;;3.58;nan;95529.56;5061383;28;20299;-70
2021/12/21 10:19:39;;;;;;;1.63;1.53;;;;;;;3.49;nan;95547.16;5060745;28;20642;-72
2021/12/21 10:22:10;;;;;;;1.40;1.40;;;;;;;3.68;nan;95541.31;5060548;28;20264;-73
2021/12/21 10:24:45;;;;;;;1.80;1.43;;;;;;;3.69;nan;95545.50;5060875;28;20206;-70
2021/12/21 10:27:12;;;;;;;7.93;1.67;;;;;;;3.63;nan;95546.34;5061182;28;20248;-70
2021/12/21 10:29:45;;;;;;;1.50;1.40;;;;;;;3.36;nan;95542.13;5061144;28;20886;-72
2021/12/21 10:32:20;;;;;;;2.40;2.20;;;;;;;3.20;nan;95540.41;5060700;28;20282;-72
2021/12/21 10:34:56;;;;;;;2.30;2.10;;;;;;;3.03;nan;95544.53;5060393;28;20229;-70
2021/12/21 10:37:27;;;;;;;1.97;1.87;;;;;;;2.82;nan;95539.44;5060989;28;20198;-71
2021/12/21 10:40:06;;;;;;;1.77;1.67;;;;;;;2.81;nan;95538.59;5060713;28;20202;-74
2021/12/21 10:42:43;;;;;;;2.23;2.03;;;;;;;2.50;nan;95557.69;5060650;28;20230;-73
2021/12/21 10:45:12;;;;;;;2.07;1.97;;;;;;;2.55;nan;95547.69;5060381;28;20275;-73
2021/12/21 10:47:39;;;;;;;3.07;1.93;;;;;;;2.62;nan;95551.91;5060806;28;20203;-73
2021/12/21 10:50:07;;;;;;;2.07;1.63;;;;;;;2.40;nan;95533.41;5060803;28;20210;-72
2021/12/21 10:52:33;;;;;;;1.90;1.80;;;;;;;2.42;nan;95543.44;5060353;28;20194;-71
2021/12/21 10:55:00;;;;;;;3.57;1.50;;;;;;;2.34;nan;95553.44;5059940;28;20310;-73
2021/12/21 10:57:31;;;;;;;1.80;1.70;;;;;;;2.39;nan;95565.19;5060493;28;20699;-74
2021/12/21 10:59:59;;;;;;;2.13;1.93;;;;;;;2.39;nan;95561.84;5060237;28;20198;-74
2021/12/21 11:02:31;;;;;;;2.00;1.90;;;;;;;2.13;nan;95563.31;5060242;28;20202;-73
2021/12/21 11:05:01;;;;;;;1.43;1.33;;;;;;;2.04;nan;95551.56;5059932;28;20238;-73
2021/12/21 11:07:33;;;;;;;2.67;1.50;;;;;;;2.15;nan;95557.50;5060388;28;20202;-73
2021/12/21 11:10:09;;;;;;;3.00;1.90;;;;;;;2.27;nan;95560.06;5060658;28;20213;-70
2021/12/21 11:12:43;;;;;;;1.90;1.80;;;;;;;2.42;nan;95558.50;5060300;28;20225;-75
2021/12/21 11:15:11;;;;;;;1.73;1.63;;;;;;;2.34;nan;95543.41;5060097;28;21350;-76
2021/12/21 11:17:40;;;;;;;1.50;1.40;;;;;;;2.67;nan;95557.78;5060140;28;20283;-74
2021/12/21 11:20:08;;;;;;;1.70;1.60;;;;;;;2.66;nan;95556.97;5059737;28;20560;-73
2021/12/21 11:22:37;;;;;;;1.50;1.40;;;;;;;2.79;nan;95562.00;5059363;28;20260;-72
2021/12/21 11:25:06;;;;;;;9.17;5.67;;;;;;;2.95;nan;95551.22;5059562;28;20202;-71
2021/12/21 11:27:35;;;;;;;2.23;2.03;;;;;;;2.96;nan;95555.41;5059532;28;20202;-73
2021/12/21 11:30:04;;;;;;;1.50;1.40;;;;;;;3.05;nan;95546.22;5060015;28;20355;-70
2021/12/21 11:32:38;;;;;;;2.03;1.93;;;;;;;3.18;nan;95541.25;5059291;28;20252;-74
2021/12/21 11:37:20;;;;;;;2.80;1.90;;;;;;;3.11;nan;95535.38;5059391;28;20307;-71
2021/12/21 11:37:58;;;;;;;2.00;1.40;;;;;;;3.00;nan;95531.97;5059948;28;20206;-73
2021/12/21 11:40:28;;;;;;;1.80;1.63;;;;;;;2.92;nan;95538.66;5059925;28;20198;-77
2021/12/21 11:43:03;;;;;;;2.00;1.63;;;;;;;2.86;nan;95544.47;5059888;28;20269;-70
2021/12/21 11:45:33;;;;;;;1.70;1.60;;;;;;;2.61;nan;95528.50;5059608;28;20268;-72
2021/12/21 11:48:07;;;;;;;1.40;1.40;;;;;;;2.58;nan;95548.53;5059681;28;20251;-74
2021/12/21 11:50:36;;;;;;;1.75;1.63;;;;;;;2.47;nan;95547.66;5059738;28;20283;-73
2021/12/21 11:53:05;;;;;;;3.13;1.43;;;;;;;2.44;nan;95534.28;5059560;28;20263;-71
2021/12/21 11:55:35;;;;;;;2.23;1.63;;;;;;;2.47;nan;95524.25;5058757;28;20234;-74
2021/12/21 11:58:15;;;;;;;2.07;1.97;;;;;;;2.61;nan;95528.50;5059987;28;20742;-73
2021/12/21 12:00:49;;;;;;;1.40;1.40;;;;;;;2.54;nan;95525.94;5059522;28;20776;-73
2021/12/21 12:03:20;;;;;;;2.10;1.63;;;;;;;2.14;nan;95504.84;5059226;28;20560;-71
2021/12/21 12:05:53;;;;;;;3.43;2.37;;;;;;;2.07;nan;95534.03;5059485;28;20317;-71
2021/12/21 12:08:22;;;;;;;3.30;2.23;;;;;;;1.83;nan;95534.72;5059470;28;20256;-71
2021/12/21 12:10:53;;;;;;;2.53;2.17;;;;;;;1.71;nan;95544.66;5059334;28;20609;-75
2021/12/21 12:13:30;;;;;;;1.87;1.77;;;;;;;1.87;nan;95546.44;5059571;28;20202;-73
2021/12/21 12:16:00;;;;;;;3.17;2.40;;;;;;;1.77;nan;95542.16;5060619;28;20225;-74
2021/12/21 12:18:28;;;;;;;2.00;1.90;;;;;;;1.60;nan;95558.75;5063829;28;20239;-75
2021/12/21 12:20:56;;;;;;;1.93;1.80;;;;;;;1.47;nan;95546.94;5063122;28;20852;-73
2021/12/21 12:23:23;;;;;;;2.33;2.23;;;;;;;1.51;nan;95561.16;5063226;28;20660;-72
2021/12/21 12:25:57;;;;;;;5.73;3.23;;;;;;;1.54;nan;95547.00;5063334;28;20210;-70
2021/12/21 12:28:28;;;;;;;1.50;1.40;;;;;;;1.65;nan;95565.47;5063375;28;20677;-73
2021/12/21 12:30:56;;;;;;;3.27;2.17;;;;;;;1.71;nan;95562.19;5062799;28;20201;-75
2021/12/21 12:33:23;;;;;;;1.67;1.57;;;;;;;2.11;nan;95562.47;5063022;28;20839;-72
2021/12/21 12:35:50;;;;;;;1.50;1.40;;;;;;;2.32;nan;95570.13;5062946;28;21075;-72
2021/12/21 12:38:21;;;;;;;1.60;1.50;;;;;;;2.51;nan;95571.06;5063467;28;20230;-73